Aérodrome :







RETROUVEZ-NOUS SUR...

 
LOGIN :

S'inscrire | Disclaimer

   EN    FR    IT 

 









Légende :    VFR   VFR Marginal   IFR   IFR Intensif   IFR Très Intensif
Visi : 
Plafond : 
>= 8 km
>= 3000ft
5 à 8 km
1000 à 3000 ft
1500m à 5 km
500 à 1000 ft
800 à 1500m
200 à 500 ft
< 800m
< 200 ft
Symboles :   Orages  Brouillard  Fortes neiges  Fortes précipitations  Vent > 20 kt






- Altitude de l'aérodrome : 180 ft
- Code IATA : YZV


CYZV - Sept-Iles

DERNIER METAR :
  • 241750Z 09017G25KT 1SM R09/P6000FT/U -SN DRSN VV006 M02/M03 A2985 RMK SN8 SLP113

METARs EXPIRÉS :
  • 241742Z 09018G26KT 1SM R09/5500VP6000FT/U -SN DRSN VV007 M02/M04 A2985 RMK SN8 SLP114
  • 241728Z 09019G28KT 1SM R09/5500FT/N -SN DRSN VV008 M02/M04 A2986 RMK SN8 SLP115
  • 241700Z 11012G28KT 3/4SM R09/3000V6000FT/D -SN DRSN VV007 M03/M04 A2987 RMK SN8 SLP121
  • 241634Z 09019G26KT 3/4SM R09/6000FT/D -SN DRSN VV007 M03/M04 A2989 RMK SN8 SLP125
  • 241600Z 09016G25KT 10SM -SN DRSN OVC007 M02/M04 A2990 RMK SC8 VIS LWR W SLP131
  • 241500Z 10018G28KT 10SM DRSN BKN007 OVC020 M02/M04 A2992 RMK SC7SC1 SLP138

TAF TAF CYZV
Valide du 24 à 18h jusqu'au 25 à 18h UTC


241738Z 2418/2518 11015G25KT 3/4SM -SN BLSN OVC006
TEMPO 2418/2424 3SM -SN OVC010
FM250000 08008KT 6SM BR SCT005 OVC020
TEMPO 2500/2505 3/4SM BR OVC005
FM250500 01005KT 3/4SM BR OVC007
TEMPO 2505/2511 6SM BR SCT007 BKN025
FM251100 VRB03KT P6SM SCT020
FM251500 25005KT P6SM BKN030 RMK NXT FCST BY 250000Z



MET'MAP, la Météo Aéronautique d'un coup d'oeil ! - Copyright ORBIFLY Décembre 2007 - Disclaimer

ORBIFLY MET'MAP TEAM :

Programmation & Développement : Alexandra Zaïnal
Sur une idée originale de : Baudouin d'Aumeries
Assistance à la programmation : Marc-Olivier Méhu
Soutien technique & logistique : Manuel Goepfert

Contact : metmap@orbifly.com




SOURCES & CREDITS :

   NOAA